Latest Coastal Weather Observations for Geraldton Airport

IDW60701

Issued at 4:23 am WST Tuesday 6 December 2016 (issued every 10 minutes, with the page automatically refreshed every 10 minutes)

About coastal observations | Map of coastal stations | Coastal observations for WA | Marine services | Other Formats
Station Details ID: 008315 Name: GERALDTON AIRPORT Lat: -28.80 Lon: 114.70 Height: 29.7 m
Data from the previous 72 hours. | See also: Recent months at Geraldton Airport
Date/Time
WST
Temp
°C
Wind Pressure Rain since
9am
mm
Weather Cloud Vis
km
Sea
Height
m
Swell
Dir  Spd
kts
Gust
kts
hPa Trend Height
m
Period
s
Dir
06/04:00am 11.6 SSE 6 7 1015.7 - 0.0 - - 10 - - - -
06/03:30am 12.6 SSE 7 8 1015.6 - 0.0 - - 10 - - - -
06/03:00am 13.2 SE 6 8 1015.7 - 0.0 - - 10 - - - -
06/02:30am 13.9 SE 8 9 1015.7 - 0.0 - - 10 - - - -
06/02:00am 14.3 SE 9 11 1015.6 - 0.0 - - 10 - - - -
06/01:30am 14.9 SSE 11 13 1015.7 - 0.0 - - 10 - - - -
06/01:00am 14.8 SE 8 10 1015.6 - 0.0 - - 10 - - - -
06/12:30am 15.3 SSE 9 11 1015.7 - 0.0 - - 10 - - - -
06/12:00am 16.0 SE 10 14 1015.6 - 0.0 - Mostly clear 10 - - - -
 
Date/Time
WST
Temp
°C
Wind Pressure Rain since
9am
mm
Weather Cloud Vis
km
Sea
Height
m
Swell
Dir  Spd
kts
Gust
kts
hPa Trend Height
m
Period
s
Dir
05/11:30pm 16.3 SE 10 14 1015.8 - 0.0 - - 10 - - - -
05/11:00pm 16.5 SSE 10 13 1016.0 - 0.0 - - 10 - - - -
05/10:30pm 16.9 SSE 12 15 1016.0 - 0.0 - Partly cloudy 10 - - - -
05/10:00pm 18.2 S 15 21 1016.1 - 0.0 - Partly cloudy 10 - - - -
05/09:30pm 18.1 S 14 19 1016.0 - 0.0 - - 10 - - - -
05/09:00pm 18.3 S 16 22 1015.7 - 0.0 - - 10 - - - -
05/08:30pm 18.2 S 16 24 1015.6 - 0.0 - - 10 - - - -
05/08:00pm 18.5 S 18 24 1015.3 - 0.0 - - 10 - - - -
05/07:30pm 18.6 S 17 26 1014.8 - 0.0 - - 10 - - - -
05/07:00pm 19.0 S 19 26 1014.5 - 0.0 - - 10 - - - -
05/06:37pm 19.4 S 19 29 1014.4 - 0.0 - - 10 - - - -
05/06:30pm 19.5 S 20 25 1014.4 - 0.0 - - 10 - - - -
05/06:00pm 20.3 S 19 25 1013.9 - 0.0 - Mostly clear 10 - - - -
05/05:30pm 20.7 S 20 30 1013.9 - 0.0 - Partly cloudy 10 - - - -
05/05:28pm 20.7 S 20 30 1013.7 - 0.0 - Partly cloudy 10 - - - -
05/05:07pm 21.1 SSE 21 24 1013.5 - 0.0 - - 10 - - - -
05/05:00pm 21.1 S 19 25 1013.5 - 0.0 - - 10 - - - -
05/04:30pm 21.7 S 19 25 1013.4 - 0.0 - - 10 - - - -
05/04:00pm 22.1 S 19 27 1013.4 - 0.0 - - 10 - - - -
05/03:30pm 22.8 S 19 27 1013.5 - 0.0 - - 10 - - - -
05/03:00pm 22.6 S 19 25 1013.4 - 0.0 - Mostly clear 10 - - - -
05/02:30pm 21.8 SSW 19 27 1013.6 - 0.0 - - 10 - - - -
05/02:09pm 22.6 S 19 29 1013.6 - 0.0 - Mostly clear 10 - - - -
05/02:00pm 23.3 S 19 25 1013.8 - 0.0 - Mostly clear 10 - - - -
05/01:30pm 22.5 SSW 19 26 1013.5 - 0.0 - Mostly clear 10 - - - -
05/01:00pm 23.0 SSW 19 25 1013.6 - 0.0 - Mostly clear 10 - - - -
05/12:30pm 23.2 SSW 17 25 1013.7 - 0.0 - Mostly clear 10 - - - -
05/12:00pm 22.2 S 17 21 1013.9 - 0.0 - Mostly clear 10 - - - -
05/11:30am 22.7 S 16 24 1014.2 - 0.0 - Partly cloudy 10 - - - -
05/11:00am 22.6 S 16 22 1014.1 - 0.0 - Partly cloudy 10 - - - -
05/10:45am 21.9 S 17 27 1014.2 - 0.0 - Partly cloudy 10 - - - -
05/10:30am 22.2 S 17 23 1014.2 - 0.0 - Partly cloudy 10 - - - -
05/10:00am 22.3 S 18 23 1014.5 - 0.0 - Partly cloudy 10 - - - -
05/09:30am 21.1 S 18 24 1014.4 - 0.0 - Partly cloudy 10 - - - -
05/09:00am 21.2 S 16 22 1014.2 - 0.0 - Mostly clear 10 - - - -
05/08:30am 20.9 SSE 16 21 1014.4 - 0.0 - Partly cloudy 10 - - - -
05/08:00am 19.1 SSE 15 21 1014.5 - 0.0 - Mostly cloudy 10 - - - -
05/07:30am 17.8 SSE 15 20 1014.7 - 0.0 - Mostly cloudy 10 - - - -
05/07:00am 16.7 SSE 15 19 1014.6 - 0.0 - Partly cloudy 10 - - - -
05/06:30am 16.1 SE 12 15 1014.4 - 0.0 - Partly cloudy 10 - - - -
05/06:00am 15.6 SE 10 13 1014.1 - 0.0 - Cloudy 10 - - - -
05/05:30am 14.8 SE 9 13 1014.0 - 0.0 - Partly cloudy 10 - - - -
05/05:00am 14.7 SE 8 11 1013.7 - 0.0 - Partly cloudy 10 - - - -
05/04:30am 14.2 SE 7 9 1013.4 - 0.0 - Cloudy 10 - - - -
05/04:00am 14.0 SE 7 9 1013.2 - 0.0 - Cloudy 10 - - - -
05/03:30am 14.3 SE 8 10 1012.7 - 0.0 - Cloudy 10 - - - -
05/03:00am 14.2 SE 7 8 1012.4 - 0.0 - Partly cloudy 10 - - - -
05/02:30am 14.4 SE 9 11 1012.5 - 0.0 - Partly cloudy 10 - - - -
05/02:00am 14.7 SE 9 11 1012.4 - 0.0 - - 10 - - - -
05/01:30am 15.1 SE 10 13 1012.4 - 0.0 - - 10 - - - -
05/01:00am 15.3 SE 10 14 1012.5 - 0.0 - - 10 - - - -
05/12:30am 15.0 SSE 9 12 1012.6 - 0.0 - - 10 - - - -
05/12:00am 14.9 SSE 8 10 1012.6 - 0.0 - - 10 - - - -
 
Date/Time
WST
Temp
°C
Wind Pressure Rain since
9am
mm
Weather Cloud Vis
km
Sea
Height
m
Swell
Dir  Spd
kts
Gust
kts
hPa Trend Height
m
Period
s
Dir
04/11:30pm 15.7 SE 8 11 1012.8 - 0.0 - - 10 - - - -
04/11:00pm 17.8 S 14 18 1012.7 - 0.0 - - 10 - - - -
04/10:30pm 17.8 S 13 19 1012.9 - 0.0 - - 10 - - - -
04/10:00pm 18.1 S 15 21 1013.0 - 0.0 - - 10 - - - -
04/09:30pm 18.1 S 15 21 1013.2 - 0.0 - - 10 - - - -
04/09:00pm 18.3 S 13 21 1013.1 - 0.0 - - 10 - - - -
04/08:30pm 18.4 S 15 23 1012.9 - 0.0 - - 10 - - - -
04/08:00pm 18.5 S 14 18 1012.8 - 0.0 - - 10 - - - -
04/07:30pm 18.9 S 17 23 1012.5 - 0.0 - - 10 - - - -
04/07:00pm 19.4 S 17 21 1012.3 - 0.0 - - 10 - - - -
04/06:30pm 20.1 S 17 24 1012.1 - 0.0 - - 10 - - - -
04/06:00pm 21.1 S 17 25 1011.9 - 0.0 - - 10 - - - -
04/05:30pm 21.5 S 18 23 1011.5 - 0.0 - - 10 - - - -
04/05:00pm 21.9 SSW 20 25 1011.5 - 0.0 - - 10 - - - -
04/04:30pm 23.1 SSW 18 23 1011.3 - 0.0 - - 10 - - - -
04/04:00pm 23.5 S 17 22 1011.3 - 0.0 - - 10 - - - -
04/03:30pm 23.7 S 16 20 1011.3 - 0.0 - - 10 - - - -
04/03:00pm 23.9 SSW 16 23 1011.3 - 0.0 - - 10 - - - -
04/02:30pm 24.2 S 17 22 1011.7 - 0.0 - - 10 - - - -
04/02:00pm 24.0 S 16 21 1012.0 - 0.0 - - 10 - - - -
04/01:30pm 25.8 S 15 19 1012.1 - 0.0 - - 10 - - - -
04/01:00pm 24.3 S 15 19 1012.3 - 0.0 - - 10 - - - -
04/12:30pm 23.7 SSW 16 22 1012.4 - 0.0 - - 10 - - - -
04/12:00pm 24.2 S 16 21 1012.5 - 0.0 - - 10 - - - -
04/11:30am 24.4 SSW 14 20 1012.8 - 0.0 - - 10 - - - -
04/11:00am 23.7 S 12 17 1012.8 - 0.0 - Partly cloudy 10 - - - -
04/10:30am 23.3 S 12 16 1013.3 - 0.0 - Partly cloudy 10 - - - -
04/10:00am 24.4 S 9 17 1013.3 - 0.0 - Partly cloudy 10 - - - -
04/09:30am 21.9 S 10 15 1013.4 - 0.0 - Partly cloudy 10 - - - -
04/09:00am 21.7 SSE 10 14 1013.4 - 0.6 - Mostly cloudy 10 - - - -
04/08:30am 20.4 SSE 13 17 1013.4 - 0.6 - Cloudy 10 - - - -
04/08:00am 19.5 SE 13 16 1013.4 - 0.6 - Cloudy 10 - - - -
04/07:30am 18.7 SE 11 16 1013.1 - 0.6 - Partly cloudy 10 - - - -
04/07:00am 18.4 SE 8 13 1013.0 - 0.6 - Partly cloudy 10 - - - -
04/06:30am 18.1 SSE 6 7 1012.7 - 0.6 - Partly cloudy 10 - - - -
04/06:00am 17.6 SE 7 9 1012.4 - 0.6 - Cloudy 10 - - - -
04/05:53am 17.4 SE 8 11 1012.4 - 0.6 - Partly cloudy 10 - - - -
04/05:30am 17.4 SSE 8 11 1012.3 - 0.6 - Cloudy 4 - - - -
04/05:16am 17.4 SE 9 12 1012.2 - 0.6 - Partly cloudy 4 - - - -
04/05:00am 17.6 SE 9 13 1012.1 - 0.6 - Partly cloudy 3 - - - -
04/04:35am 17.7 S 4 5 1011.8 - 0.6 - Partly cloudy 3 - - - -
04/04:31am 17.8 SSE 3 4 1011.7 - 0.6 - Partly cloudy 6 - - - -
04/04:30am 17.8 SSE 3 4 1011.7 - 0.6 - Partly cloudy 9 - - - -
04/04:02am 18.3 CALM 0 0 1011.5 - 0.0 - Partly cloudy 5 - - - -
04/04:00am 18.3 CALM 0 0 1011.5 - 0.0 - Partly cloudy 10 - - - -
04/03:30am 18.3 SSW 3 4 1011.3 - 0.0 - Partly cloudy 10 - - - -
04/03:16am 18.2 SW 3 5 1011.3 - 0.0 - Partly cloudy 10 - - - -
04/03:00am 17.7 E 1 5 1011.2 - 0.0 - Cloudy 5 - - - -
04/02:58am 17.4 ENE 1 3 1011.4 - 0.0 - Partly cloudy 6 - - - -
04/02:30am 16.5 ENE 3 3 1011.2 - 0.0 - Cloudy 10 - - - -
04/02:00am 15.7 ESE 3 5 1011.2 - 0.0 - Partly cloudy 10 - - - -
04/01:30am 17.1 SSW 6 7 1011.3 - 0.0 - - 10 - - - -
04/01:00am 17.5 SSW 6 7 1011.4 - 0.0 - - 10 - - - -
04/12:30am 18.5 SSW 8 11 1011.6 - 0.0 - Partly cloudy 10 - - - -
04/12:00am 18.9 SSW 4 6 1011.6 - 0.0 - Cloudy 10 - - - -
 
Date/Time
WST
Temp
°C
Wind Pressure Rain since
9am
mm
Weather Cloud Vis
km
Sea
Height
m
Swell
Dir  Spd
kts
Gust
kts
hPa Trend Height
m
Period
s
Dir
03/11:30pm 18.0 SSW 4 5 1011.9 - 0.0 - Partly cloudy 10 - - - -
03/11:00pm 17.9 S 5 5 1012.0 - 0.0 - Partly cloudy 10 - - - -
03/10:30pm 18.8 S 7 9 1012.2 - 0.0 - Partly cloudy 10 - - - -
03/10:00pm 19.7 S 4 7 1012.2 - 0.0 - Cloudy 10 - - - -
03/09:30pm 19.0 S 5 7 1012.3 - 0.0 - Cloudy 10 - - - -
03/09:00pm 18.2 SSW 7 8 1012.0 - 0.0 - Mostly clear 10 - - - -
03/08:30pm 18.4 SSW 8 10 1011.9 - 0.0 - Partly cloudy 10 - - - -
03/08:00pm 18.7 SSW 9 12 1011.8 - 0.0 - - 10 - - - -
03/07:30pm 18.8 SSW 9 13 1011.7 - 0.0 - - 10 - - - -
03/07:00pm 19.4 SSW 11 14 1011.5 - 0.0 - - 10 - - - -
03/06:30pm 20.1 SSW 13 17 1011.2 - 0.0 - - 10 - - - -
03/06:00pm 20.5 SSW 13 17 1010.8 - 0.0 - Mostly clear 10 - - - -
03/05:30pm 21.4 SSW 13 17 1010.7 - 0.0 - - 10 - - - -
03/05:00pm 21.5 SSW 14 18 1010.7 - 0.0 - - 10 - - - -
03/04:30pm 21.6 SSW 15 20 1010.4 - 0.0 - - 10 - - - -
03/04:00pm 22.4 SSW 16 21 1010.3 - 0.0 - - 10 - - - -
03/03:30pm 22.4 SW 15 21 1010.2 - 0.0 - - 10 - - - -
03/03:00pm 22.1 SW 15 22 1010.3 - 0.0 - - 10 - - - -
03/02:30pm 22.8 SW 14 21 1010.4 - 0.0 - - 10 - - - -
03/02:00pm 22.7 SW 16 22 1010.5 - 0.0 - - 10 - - - -
03/01:30pm 22.8 SW 14 19 1010.6 - 0.0 - - 10 - - - -
03/01:00pm 22.7 SW 13 19 1010.7 - 0.0 - Partly cloudy 10 - - - -
03/12:30pm 22.1 SSW 14 21 1010.7 - 0.0 - Partly cloudy 10 - - - -
03/12:00pm 21.8 SSW 12 18 1010.8 - 0.0 - Mostly clear 10 - - - -
03/11:30am 22.6 SSW 12 19 1010.8 - 0.0 - - 10 - - - -
03/11:00am 22.2 SSW 13 20 1010.7 - 0.0 - Partly cloudy 10 - - - -
03/10:30am 22.5 SSW 13 19 1010.5 - 0.0 - Partly cloudy 10 - - - -
03/10:00am 21.8 SSW 11 16 1010.7 - 0.0 - Partly cloudy 10 - - - -
03/09:30am 20.5 SSW 12 17 1010.7 - 0.0 - Partly cloudy 10 - - - -
03/09:00am 20.8 SSW 12 18 1010.6 - 0.0 - Mostly cloudy 10 - - - -
03/08:30am 20.2 SSW 12 17 1010.7 - 0.0 - Partly cloudy 10 - - - -
03/08:00am 20.4 S 13 18 1010.3 - 0.0 - Partly cloudy 10 - - - -
03/07:30am 20.0 S 12 17 1010.1 - 0.0 - Partly cloudy 10 - - - -
03/07:00am 19.4 SSE 8 14 1009.9 - 0.0 - Cloudy 10 - - - -
03/06:30am 18.3 SSE 5 7 1009.7 - 0.0 - Cloudy 10 - - - -
03/06:00am 17.2 SE 6 9 1009.3 - 0.0 - Mostly cloudy 10 - - - -
03/05:30am 16.9 SE 6 8 1009.1 - 0.0 - Cloudy 10 - - - -
03/05:00am 17.2 SSE 7 10 1008.6 - 0.0 - Partly cloudy 10 - - - -
03/04:30am 18.0 S 10 14 1008.6 - 0.0 - Partly cloudy 10 - - - -

Other Formats:

Comma delimited format used in spreadsheet applications
http://www.bom.gov.au/fwo/IDW60701/IDW60701.94403.axf

JavaScript Object Notation format (JSON) in row-major order
http://www.bom.gov.au/fwo/IDW60701/IDW60701.94403.json